Time;durP1;ratioP1;P1;durP2;ratioP2;P2;SDS_P1;SDS_P2;PMS_P1;PMS_P2;Temp;Humidity;BMP_temperature;BMP_pressure;BME280_temperature;BME280_humidity;BME280_pressure;Samples;Min_cycle;Max_cycle;Signal;HPM_P1;HPM_P2
2022/03/26 00:01:42;;;;;;;51.70;21.53;;;7.90;93.50;;;;;;5051240;28;20558;-75
2022/03/26 00:04:08;;;;;;;57.57;20.60;;;7.90;95.50;;;;;;5051220;28;20250;-75
2022/03/26 00:06:34;;;;;;;49.53;19.50;;;7.80;96.80;;;;;;5051379;28;20207;-75
2022/03/26 00:09:00;;;;;;;51.73;19.87;;;7.90;95.60;;;;;;5051509;28;20267;-75
2022/03/26 00:11:25;;;;;;;58.57;19.97;;;7.80;95.50;;;;;;5051130;28;20552;-75
2022/03/26 00:13:51;;;;;;;49.17;19.83;;;7.80;96.40;;;;;;5051481;28;20257;-75
2022/03/26 00:16:17;;;;;;;54.90;19.47;;;7.60;96.50;;;;;;5051142;28;20177;-75
2022/03/26 00:18:42;;;;;;;48.73;19.87;;;7.70;96.30;;;;;;5050903;28;20205;-75
2022/03/26 00:21:08;;;;;;;49.63;18.70;;;7.70;96.50;;;;;;5050924;28;20176;-75
2022/03/26 00:23:34;;;;;;;54.20;19.33;;;7.80;94.70;;;;;;5050459;28;20623;-75
2022/03/26 00:26:00;;;;;;;47.27;17.80;;;7.60;95.10;;;;;;5050902;28;20170;-75
2022/03/26 00:28:27;;;;;;;48.73;19.27;;;7.50;96.20;;;;;;5050950;28;20178;-75
2022/03/26 00:30:53;;;;;;;52.00;18.73;;;7.30;97.40;;;;;;5050927;28;20231;-75
2022/03/26 00:33:19;;;;;;;51.43;19.50;;;7.40;96.40;;;;;;5050900;28;20537;-75
2022/03/26 00:35:46;;;;;;;51.47;19.00;;;7.40;97.20;;;;;;5050928;28;20173;-75
2022/03/26 00:38:12;;;;;;;53.93;19.93;;;7.20;98.10;;;;;;5050257;28;20201;-75
2022/03/26 00:40:37;;;;;;;55.53;19.73;;;7.00;99.90;;;;;;5050835;28;20180;-75
2022/03/26 00:43:04;;;;;;;54.17;19.80;;;7.20;99.90;;;;;;5050581;28;20170;-75
2022/03/26 00:45:29;;;;;;;47.07;18.47;;;7.20;99.80;;;;;;5050759;28;20173;-74
2022/03/26 00:47:56;;;;;;;56.30;21.00;;;7.40;99.20;;;;;;5050680;28;20184;-74
2022/03/26 00:50:23;;;;;;;55.63;20.27;;;7.30;99.90;;;;;;5050421;28;20292;-75
2022/03/26 00:52:49;;;;;;;52.17;20.60;;;7.40;98.80;;;;;;5050257;28;20271;-75
2022/03/26 00:55:15;;;;;;;55.27;20.23;;;7.50;98.50;;;;;;5050698;28;20261;-75
2022/03/26 00:57:40;;;;;;;52.07;19.57;;;7.30;99.20;;;;;;5050380;28;20673;-75
2022/03/26 01:00:07;;;;;;;49.90;18.73;;;7.20;98.90;;;;;;5050584;28;20200;-75
2022/03/26 01:02:33;;;;;;;45.70;18.00;;;7.30;98.10;;;;;;5050141;28;20170;-75
2022/03/26 01:04:59;;;;;;;51.87;20.37;;;7.10;99.70;;;;;;5050557;28;20236;-75
2022/03/26 01:07:26;;;;;;;58.73;20.77;;;7.30;97.90;;;;;;5050571;28;20586;-75
2022/03/26 01:09:56;;;;;;;50.97;20.27;;;7.30;99.10;;;;;;5050543;28;20205;-75
2022/03/26 01:12:22;;;;;;;57.10;20.70;;;7.30;98.10;;;;;;5050282;28;20711;-75
2022/03/26 01:14:49;;;;;;;49.23;18.97;;;7.10;99.40;;;;;;5050440;28;20299;-75
2022/03/26 01:17:15;;;;;;;51.20;18.53;;;7.00;99.00;;;;;;5050332;28;20590;-74
2022/03/26 01:19:41;;;;;;;54.97;18.50;;;7.10;99.20;;;;;;5050502;28;20545;-75
2022/03/26 01:22:07;;;;;;;52.73;20.00;;;7.00;99.60;;;;;;5050200;28;20185;-75
2022/03/26 01:24:33;;;;;;;48.63;19.63;;;7.20;98.80;;;;;;5050407;28;20549;-75
2022/03/26 01:26:58;;;;;;;57.43;18.80;;;7.20;98.40;;;;;;5050329;28;20186;-75
2022/03/26 01:29:24;;;;;;;46.50;19.13;;;7.20;98.80;;;;;;5050281;28;20197;-75
2022/03/26 01:31:50;;;;;;;50.67;18.90;;;7.00;99.90;;;;;;5050109;28;20208;-75
2022/03/26 01:34:16;;;;;;;48.57;18.40;;;6.80;99.90;;;;;;5053787;28;20648;-74
2022/03/26 01:36:45;;;;;;;54.30;18.93;;;6.70;99.90;;;;;;5053865;28;20179;-75
2022/03/26 01:39:11;;;;;;;55.40;18.03;;;6.70;99.90;;;;;;5054093;28;20198;-74
2022/03/26 01:41:37;;;;;;;46.63;17.87;;;6.80;99.90;;;;;;5053927;28;20180;-75
2022/03/26 01:44:03;;;;;;;56.10;19.27;;;6.90;99.90;;;;;;5053973;28;20610;-75
2022/03/26 01:46:47;;;;;;;47.57;18.57;;;6.80;99.80;;;;;;5053991;28;20188;-75
2022/03/26 01:49:12;;;;;;;43.87;17.53;;;6.80;99.70;;;;;;5053922;28;20210;-75
2022/03/26 01:51:38;;;;;;;49.47;17.50;;;6.70;99.30;;;;;;5053126;28;20181;-75
2022/03/26 01:54:04;;;;;;;50.97;18.23;;;6.60;99.90;;;;;;5053846;28;20264;-75
2022/03/26 01:56:30;;;;;;;51.57;18.87;;;6.50;99.90;;;;;;5053764;28;20183;-75
2022/03/26 01:58:56;;;;;;;53.03;18.53;;;6.60;99.90;;;;;;5053531;28;20213;-75
2022/03/26 02:01:21;;;;;;;53.17;18.50;;;6.60;99.90;;;;;;5053506;28;20185;-75
2022/03/26 02:03:47;;;;;;;47.67;17.37;;;6.40;99.90;;;;;;5053711;28;20268;-74
2022/03/26 02:06:13;;;;;;;51.47;18.97;;;6.40;99.90;;;;;;5053642;28;20560;-75
2022/03/26 02:08:38;;;;;;;51.07;19.63;;;6.70;99.90;;;;;;5053581;28;20600;-75
2022/03/26 02:11:04;;;;;;;57.67;20.77;;;6.70;99.90;;;;;;5053344;28;20178;-75
2022/03/26 02:13:49;;;;;;;46.73;18.50;;;6.60;99.90;;;;;;5053488;28;20181;-75
2022/03/26 02:16:14;;;;;;;51.17;18.73;;;6.60;99.90;;;;;;5053403;28;20178;-75
2022/03/26 02:18:40;;;;;;;50.53;17.93;;;6.70;99.90;;;;;;5053289;28;20222;-75
2022/03/26 02:21:06;;;;;;;46.57;17.47;;;6.70;99.90;;;;;;5053155;28;20190;-74
2022/03/26 02:23:31;;;;;;;50.83;19.00;;;6.60;99.90;;;;;;5053372;28;20177;-75
2022/03/26 02:25:57;;;;;;;50.37;18.83;;;6.50;99.90;;;;;;5069863;28;20186;-75
2022/03/26 02:28:23;;;;;;;48.93;17.00;;;6.60;99.90;;;;;;5053175;28;20229;-75
2022/03/26 02:30:48;;;;;;;42.27;17.13;;;6.50;99.90;;;;;;5053166;28;20207;-74
2022/03/26 02:33:14;;;;;;;50.90;17.43;;;6.40;99.90;;;;;;5052972;28;20173;-74
2022/03/26 02:35:39;;;;;;;50.67;17.00;;;6.40;99.90;;;;;;5052957;28;20186;-75
2022/03/26 02:38:05;;;;;;;52.13;17.00;;;6.20;99.90;;;;;;5052404;28;20201;-74
2022/03/26 02:40:31;;;;;;;44.17;17.20;;;6.30;99.90;;;;;;5052784;28;20582;-74
2022/03/26 02:42:56;;;;;;;46.10;18.70;;;6.30;99.90;;;;;;5052761;28;20204;-75
2022/03/26 02:45:22;;;;;;;47.50;17.80;;;6.10;99.90;;;;;;5052337;28;20240;-74
2022/03/26 02:47:49;;;;;;;46.33;16.17;;;6.30;99.90;;;;;;5052868;28;20648;-75
2022/03/26 02:50:15;;;;;;;41.63;15.73;;;6.20;99.90;;;;;;5052220;28;20695;-75
2022/03/26 02:52:41;;;;;;;41.97;16.77;;;6.10;99.90;;;;;;5052564;28;20182;-74
2022/03/26 02:55:08;;;;;;;44.07;16.43;;;6.10;99.90;;;;;;5052732;28;20188;-74
2022/03/26 02:57:34;;;;;;;52.57;18.20;;;6.10;99.90;;;;;;5052854;28;20550;-74
2022/03/26 03:00:00;;;;;;;52.03;18.57;;;6.20;99.90;;;;;;5052565;28;20244;-74
2022/03/26 03:02:25;;;;;;;41.30;17.53;;;6.00;99.90;;;;;;5051973;28;20183;-74
2022/03/26 03:04:51;;;;;;;52.47;18.23;;;5.90;99.90;;;;;;5052218;28;20250;-74
2022/03/26 03:07:16;;;;;;;48.30;17.60;;;6.00;99.90;;;;;;5052407;28;20176;-74
2022/03/26 03:09:42;;;;;;;46.27;16.80;;;6.10;99.90;;;;;;5068937;28;20205;-74
2022/03/26 03:12:09;;;;;;;45.73;17.50;;;6.20;99.90;;;;;;5052217;28;20223;-74
2022/03/26 03:14:36;;;;;;;36.50;16.50;;;6.10;99.90;;;;;;5052317;28;20183;-74
2022/03/26 03:17:02;;;;;;;44.87;17.60;;;5.90;99.90;;;;;;5052250;28;20177;-75
2022/03/26 03:19:28;;;;;;;41.87;16.30;;;6.10;99.90;;;;;;5053454;28;20341;-74
2022/03/26 03:21:53;;;;;;;47.47;18.67;;;5.80;99.90;;;;;;5052084;28;20179;-74
2022/03/26 03:24:19;;;;;;;53.07;18.80;;;5.90;99.90;;;;;;5052159;28;20173;-74
2022/03/26 03:26:45;;;;;;;52.90;19.30;;;5.80;99.90;;;;;;5052078;28;20197;-74
2022/03/26 03:29:10;;;;;;;46.93;17.63;;;5.70;99.90;;;;;;5051960;28;20288;-74
2022/03/26 03:31:37;;;;;;;55.27;17.80;;;5.70;99.90;;;;;;5051903;28;20181;-74
2022/03/26 03:34:02;;;;;;;56.97;18.50;;;5.60;99.90;;;;;;5052012;28;20179;-74
2022/03/26 03:36:29;;;;;;;49.17;17.60;;;5.50;99.90;;;;;;5051393;28;20242;-74
2022/03/26 03:38:54;;;;;;;46.40;17.20;;;5.70;99.90;;;;;;5051749;28;20269;-74
2022/03/26 03:41:20;;;;;;;61.53;20.53;;;6.00;99.90;;;;;;5051666;28;20173;-74
2022/03/26 03:43:46;;;;;;;47.63;17.93;;;6.10;99.90;;;;;;5051817;28;20179;-74
2022/03/26 03:46:12;;;;;;;50.67;17.27;;;6.10;99.90;;;;;;5051770;28;20252;-74
2022/03/26 03:48:38;;;;;;;58.40;19.40;;;6.10;99.90;;;;;;5051685;28;20200;-74
2022/03/26 03:51:04;;;;;;;60.37;18.27;;;6.20;99.90;;;;;;5050821;28;20185;-74
2022/03/26 03:53:30;;;;;;;51.00;18.37;;;6.20;99.90;;;;;;5051559;28;20226;-74
2022/03/26 03:55:55;;;;;;;59.10;18.03;;;6.20;99.90;;;;;;5051704;28;20177;-74
2022/03/26 03:58:21;;;;;;;45.80;17.17;;;6.20;99.90;;;;;;5050569;28;20209;-75
2022/03/26 04:00:46;;;;;;;48.20;17.93;;;6.20;99.90;;;;;;5050638;28;20216;-74
2022/03/26 04:03:12;;;;;;;56.83;18.33;;;6.20;99.90;;;;;;5050419;28;20272;-74
2022/03/26 04:05:39;;;;;;;51.37;18.97;;;6.30;99.90;;;;;;5051403;28;20212;-75
2022/03/26 04:08:04;;;;;;;47.93;17.73;;;6.20;99.90;;;;;;5051274;28;20173;-75
2022/03/26 04:10:30;;;;;;;54.03;18.73;;;6.30;99.90;;;;;;5051118;28;20252;-74
2022/03/26 04:12:56;;;;;;;45.93;17.20;;;6.10;99.90;;;;;;5051042;28;20177;-74
2022/03/26 04:15:21;;;;;;;54.67;17.00;;;6.30;99.90;;;;;;5051244;28;20183;-74
2022/03/26 04:17:51;;;;;;;55.80;17.77;;;6.30;99.90;;;;;;5051089;28;20704;-75
2022/03/26 04:20:16;;;;;;;54.50;16.93;;;6.20;99.90;;;;;;5051068;28;20280;-74
2022/03/26 04:22:42;;;;;;;46.83;16.53;;;6.20;99.90;;;;;;5050851;28;20630;-74
2022/03/26 04:25:09;;;;;;;53.53;18.33;;;6.10;99.90;;;;;;5051078;28;20188;-74
2022/03/26 04:27:36;;;;;;;54.83;19.03;;;5.90;99.90;;;;;;5050965;28;20220;-74
2022/03/26 04:30:02;;;;;;;52.57;18.37;;;5.90;99.90;;;;;;5050972;28;20207;-74
2022/03/26 04:32:28;;;;;;;50.33;17.57;;;5.80;99.90;;;;;;5050656;28;20235;-75
2022/03/26 04:34:54;;;;;;;55.17;18.17;;;5.80;99.90;;;;;;5051021;28;20182;-74
2022/03/26 04:37:20;;;;;;;58.73;18.97;;;5.80;99.90;;;;;;5050488;28;20213;-74
2022/03/26 04:39:45;;;;;;;49.10;18.30;;;5.80;99.90;;;;;;5050901;28;20200;-74
2022/03/26 04:42:11;;;;;;;44.53;18.10;;;5.80;99.90;;;;;;5050681;28;20703;-74
2022/03/26 04:44:37;;;;;;;59.03;18.17;;;5.80;99.90;;;;;;5050718;28;20248;-75
2022/03/26 04:47:02;;;;;;;54.03;18.27;;;5.80;99.90;;;;;;5050721;28;20179;-75
2022/03/26 04:49:28;;;;;;;41.53;17.03;;;5.70;99.90;;;;;;5051917;28;20636;-74
2022/03/26 04:51:54;;;;;;;48.23;17.73;;;5.80;99.90;;;;;;5050042;28;20181;-75
2022/03/26 04:54:20;;;;;;;57.03;18.70;;;5.80;99.90;;;;;;5050693;28;20175;-74
2022/03/26 04:56:46;;;;;;;44.73;17.63;;;5.80;99.90;;;;;;5050711;28;20271;-75
2022/03/26 04:59:11;;;;;;;50.23;18.77;;;5.70;99.90;;;;;;5050547;28;20213;-74
2022/03/26 05:01:37;;;;;;;49.03;18.20;;;5.70;99.90;;;;;;5050434;28;20671;-74
2022/03/26 05:04:03;;;;;;;48.10;17.03;;;5.70;99.90;;;;;;5050523;28;20181;-75
2022/03/26 05:06:29;;;;;;;56.47;18.77;;;5.60;99.90;;;;;;5050561;28;20269;-75
2022/03/26 05:08:54;;;;;;;54.83;18.90;;;5.50;99.90;;;;;;5052323;28;20786;-74
2022/03/26 05:11:21;;;;;;;55.93;18.30;;;5.50;99.90;;;;;;5054665;28;20331;-75
2022/03/26 05:13:47;;;;;;;47.53;17.53;;;5.40;99.90;;;;;;5054644;28;20199;-74
2022/03/26 05:16:13;;;;;;;56.13;19.27;;;5.50;99.90;;;;;;5054539;28;20177;-74
2022/03/26 05:18:39;;;;;;;51.07;17.67;;;5.40;99.90;;;;;;5054280;28;20247;-74
2022/03/26 05:21:07;;;;;;;53.93;18.33;;;5.40;99.90;;;;;;5054326;28;20205;-74
2022/03/26 05:23:33;;;;;;;55.53;18.63;;;5.50;99.90;;;;;;5054439;28;20178;-74
2022/03/26 05:25:59;;;;;;;50.63;18.67;;;5.40;99.90;;;;;;5054290;28;20185;-75
2022/03/26 05:28:25;;;;;;;48.07;17.30;;;5.30;99.90;;;;;;5054347;28;20814;-74
2022/03/26 05:30:51;;;;;;;44.33;18.20;;;5.40;99.90;;;;;;5054310;28;20181;-74
2022/03/26 05:33:17;;;;;;;51.33;18.03;;;5.40;99.90;;;;;;5053995;28;20633;-74
2022/03/26 05:35:43;;;;;;;52.70;18.83;;;5.30;99.90;;;;;;5054218;28;20202;-74
2022/03/26 05:38:09;;;;;;;52.63;18.50;;;5.30;99.90;;;;;;5053741;28;20330;-74
2022/03/26 05:40:35;;;;;;;54.47;19.43;;;5.30;99.90;;;;;;5054126;28;20169;-74
2022/03/26 05:43:00;;;;;;;53.67;18.60;;;5.50;99.90;;;;;;5053935;28;20180;-74
2022/03/26 05:45:26;;;;;;;51.27;17.03;;;5.70;99.90;;;;;;5054015;28;20649;-74
2022/03/26 05:47:56;;;;;;;57.00;19.03;;;5.50;99.90;;;;;;5053936;28;20182;-75
2022/03/26 05:50:22;;;;;;;50.53;18.73;;;5.40;99.90;;;;;;5053671;28;20229;-74
2022/03/26 05:52:47;;;;;;;48.07;19.47;;;5.10;99.90;;;;;;5053613;28;20182;-74
2022/03/26 05:55:13;;;;;;;58.47;20.10;;;5.20;99.90;;;;;;5053940;28;20175;-74
2022/03/26 05:57:39;;;;;;;56.10;20.00;;;5.40;99.90;;;;;;5055035;28;20568;-74
2022/03/26 06:00:06;;;;;;;51.40;18.47;;;5.70;99.90;;;;;;5053552;28;20192;-74
2022/03/26 06:02:31;;;;;;;58.80;19.53;;;5.60;99.90;;;;;;5053496;28;20175;-75
2022/03/26 06:04:57;;;;;;;50.73;20.30;;;5.70;99.90;;;;;;5053682;28;20894;-75
2022/03/26 06:07:24;;;;;;;49.63;18.73;;;5.80;99.90;;;;;;5053755;28;20177;-74
2022/03/26 06:09:49;;;;;;;53.13;18.50;;;6.00;99.90;;;;;;5053633;28;20292;-74
2022/03/26 06:12:15;;;;;;;52.83;20.33;;;6.00;99.90;;;;;;5053432;28;20628;-74
2022/03/26 06:14:41;;;;;;;57.20;18.20;;;6.00;99.90;;;;;;5053463;28;20176;-74
2022/03/26 06:17:06;;;;;;;46.13;18.50;;;6.10;99.90;;;;;;5053354;28;20271;-74
2022/03/26 06:19:32;;;;;;;52.10;19.33;;;6.20;99.90;;;;;;5052957;28;20198;-74
2022/03/26 06:21:57;;;;;;;46.03;18.23;;;6.60;99.90;;;;;;5052712;28;20201;-75
2022/03/26 06:24:23;;;;;;;47.23;17.90;;;6.90;99.90;;;;;;5053298;28;20636;-74
2022/03/26 06:26:49;;;;;;;41.87;17.33;;;6.90;99.90;;;;;;5053216;28;20618;-74
2022/03/26 06:29:16;;;;;;;41.70;16.77;;;7.10;99.90;;;;;;5053118;28;20766;-75
2022/03/26 06:31:43;;;;;;;51.43;17.93;;;7.90;99.90;;;;;;5052893;28;20182;-75
2022/03/26 06:34:08;;;;;;;39.23;16.97;;;8.30;99.90;;;;;;5053361;28;20187;-75
2022/03/26 06:36:34;;;;;;;49.23;18.07;;;8.70;99.90;;;;;;5052862;28;20647;-75
2022/03/26 06:39:02;;;;;;;46.90;17.20;;;9.10;99.90;;;;;;5052900;28;20214;-75
2022/03/26 06:41:27;;;;;;;42.80;18.03;;;9.10;99.90;;;;;;5052873;28;20176;-75
2022/03/26 06:43:53;;;;;;;45.50;18.80;;;9.20;99.90;;;;;;5052935;28;20564;-75
2022/03/26 06:46:19;;;;;;;40.23;18.67;;;9.30;99.90;;;;;;5052860;28;20591;-75
2022/03/26 06:48:44;;;;;;;44.20;19.23;;;9.20;99.90;;;;;;5052800;28;20197;-75
2022/03/26 06:51:10;;;;;;;46.20;19.37;;;9.60;99.90;;;;;;5052219;28;20192;-75
2022/03/26 06:53:36;;;;;;;48.30;19.23;;;9.90;99.90;;;;;;5052393;28;20177;-75
2022/03/26 06:56:04;;;;;;;50.27;19.30;;;9.80;99.90;;;;;;5052702;28;20228;-75
2022/03/26 06:58:30;;;;;;;46.07;19.87;;;10.40;98.60;;;;;;5052533;28;20247;-75
2022/03/26 07:00:58;;;;;;;51.37;20.90;;;11.80;93.90;;;;;;5052463;28;20262;-75
2022/03/26 07:03:24;;;;;;;49.87;21.23;;;12.40;91.50;;;;;;5052473;28;20169;-75
2022/03/26 07:05:50;;;;;;;48.97;20.83;;;13.00;90.00;;;;;;5052530;28;20269;-75
2022/03/26 07:08:15;;;;;;;54.90;21.97;;;13.30;89.00;;;;;;5052447;28;20177;-75
2022/03/26 07:10:44;;;;;;;46.50;21.90;;;13.20;88.80;;;;;;5052480;28;20181;-75
2022/03/26 07:13:11;;;;;;;47.70;20.27;;;13.00;89.30;;;;;;5052164;28;20268;-76
2022/03/26 07:15:36;;;;;;;56.43;21.67;;;14.00;85.30;;;;;;5052366;28;20177;-77
2022/03/26 07:18:02;;;;;;;43.43;21.30;;;15.20;82.40;;;;;;5052571;28;20211;-77
2022/03/26 07:20:28;;;;;;;50.40;21.40;;;16.40;77.90;;;;;;5053179;28;20198;-78
2022/03/26 07:22:54;;;;;;;48.00;21.93;;;16.00;78.00;;;;;;5052645;28;20205;-78
2022/03/26 07:25:19;;;;;;;45.60;22.20;;;16.00;79.80;;;;;;5052848;28;20596;-77
2022/03/26 07:27:45;;;;;;;46.08;21.92;;;16.30;76.30;;;;;;5052216;28;20196;-77
2022/03/26 07:30:11;;;;;;;43.97;22.13;;;16.50;76.10;;;;;;5052596;28;20200;-77
2022/03/26 07:32:37;;;;;;;45.20;23.13;;;16.10;77.00;;;;;;5052467;28;20212;-78
2022/03/26 07:35:04;;;;;;;45.05;20.52;;;15.80;77.90;;;;;;5053129;28;20197;-78
2022/03/26 07:37:29;;;;;;;47.50;21.67;;;16.80;75.30;;;;;;5053684;28;20588;-78
2022/03/26 07:39:55;;;;;;;46.25;22.10;;;17.40;72.40;;;;;;5054656;28;20194;-78
2022/03/26 07:42:21;;;;;;;42.28;22.20;;;17.30;73.20;;;;;;5055440;28;20181;-78
2022/03/26 07:44:46;;;;;;;44.78;22.70;;;18.20;70.80;;;;;;5056406;28;20176;-79
2022/03/26 07:47:12;;;;;;;50.55;23.63;;;19.20;69.10;;;;;;5056529;28;20246;-79
2022/03/26 07:49:38;;;;;;;41.55;22.88;;;18.60;71.60;;;;;;5055580;28;20197;-79
2022/03/26 07:52:04;;;;;;;52.17;23.65;;;19.10;68.90;;;;;;5054595;28;20181;-78
2022/03/26 07:54:30;;;;;;;47.17;22.77;;;18.80;70.10;;;;;;5056010;28;20177;-79
2022/03/26 07:56:55;;;;;;;43.53;23.00;;;17.10;73.80;;;;;;5055353;28;20272;-79
2022/03/26 07:59:21;;;;;;;41.58;22.63;;;18.10;71.70;;;;;;5054934;28;20240;-79
2022/03/26 08:01:47;;;;;;;46.22;23.02;;;18.60;70.50;;;;;;5054509;28;20634;-78
2022/03/26 08:04:12;;;;;;;48.00;25.35;;;18.90;69.40;;;;;;5053745;28;20169;-78
2022/03/26 08:06:38;;;;;;;44.30;24.08;;;18.70;68.20;;;;;;5053680;28;20582;-78
2022/03/26 08:09:04;;;;;;;49.17;24.90;;;18.50;68.20;;;;;;5053304;28;20291;-79
2022/03/26 08:11:30;;;;;;;50.17;25.45;;;18.30;68.60;;;;;;5056140;28;20181;-79
2022/03/26 08:13:56;;;;;;;53.10;25.80;;;19.30;67.10;;;;;;5052146;28;20185;-81
2022/03/26 08:16:21;;;;;;;53.38;25.08;;;19.00;66.70;;;;;;5054332;28;20200;-78
2022/03/26 08:18:47;;;;;;;54.22;26.30;;;17.90;72.60;;;;;;5056068;28;20226;-79
2022/03/26 08:21:14;;;;;;;53.60;24.52;;;19.10;67.60;;;;;;5056941;28;20188;-79
2022/03/26 08:23:40;;;;;;;55.80;27.67;;;20.40;66.10;;;;;;5057221;28;20173;-79
2022/03/26 08:28:51;;;;;;;54.08;27.50;;;19.30;70.50;;;;;;5058869;28;20227;-78
2022/03/26 08:31:23;;;;;;;54.30;27.95;;;18.10;71.00;;;;;;5054884;28;20181;-79
2022/03/26 08:33:49;;;;;;;60.03;29.25;;;18.10;70.40;;;;;;5054853;28;20173;-78
2022/03/26 08:36:16;;;;;;;53.75;27.70;;;17.10;70.50;;;;;;5054334;28;20538;-78
2022/03/26 08:38:46;;;;;;;52.95;26.17;;;16.20;73.40;;;;;;5053288;28;20205;-78
2022/03/26 08:41:13;;;;;;;55.33;26.38;;;16.60;73.30;;;;;;5053824;28;20578;-79
2022/03/26 08:43:39;;;;;;;54.03;26.75;;;16.60;74.60;;;;;;5053771;28;20177;-78
2022/03/26 08:46:04;;;;;;;52.53;25.33;;;19.40;70.70;;;;;;5054185;28;20173;-78
2022/03/26 08:48:31;;;;;;;55.28;25.38;;;20.70;63.90;;;;;;5053619;28;20197;-78
2022/03/26 08:50:57;;;;;;;50.63;25.45;;;20.60;64.40;;;;;;5052598;28;20558;-78
2022/03/26 08:53:22;;;;;;;48.58;24.20;;;21.40;64.50;;;;;;5052159;28;20173;-78
2022/03/26 08:55:49;;;;;;;47.97;24.17;;;20.90;65.30;;;;;;5052773;28;20710;-78
2022/03/26 08:58:17;;;;;;;53.85;25.10;;;20.00;65.00;;;;;;5053591;28;20232;-78
2022/03/26 09:00:43;;;;;;;54.17;26.13;;;18.30;66.00;;;;;;5053179;28;20176;-78
2022/03/26 09:03:08;;;;;;;45.92;24.30;;;17.60;69.50;;;;;;5052407;28;20173;-78
2022/03/26 09:05:34;;;;;;;47.13;23.40;;;17.90;70.90;;;;;;5052502;28;20181;-78
2022/03/26 09:07:59;;;;;;;45.13;23.00;;;19.20;67.80;;;;;;5052367;28;20177;-78
2022/03/26 09:10:25;;;;;;;48.25;21.40;;;18.60;68.90;;;;;;5052360;28;20193;-78
2022/03/26 09:12:52;;;;;;;39.60;20.80;;;18.10;70.50;;;;;;5053273;28;20351;-78
2022/03/26 09:15:17;;;;;;;47.08;22.15;;;18.40;68.60;;;;;;5052589;28;20181;-78
2022/03/26 09:17:43;;;;;;;52.00;22.58;;;18.60;68.40;;;;;;5052469;28;20200;-78
2022/03/26 09:20:09;;;;;;;47.22;19.73;;;18.30;69.10;;;;;;5052095;28;20189;-78
2022/03/26 09:22:36;;;;;;;42.75;20.63;;;17.50;71.10;;;;;;5051368;28;20170;-78
2022/03/26 09:25:04;;;;;;;45.30;20.40;;;17.20;74.60;;;;;;5052806;28;20169;-78
2022/03/26 09:27:30;;;;;;;43.58;19.15;;;17.50;74.20;;;;;;5051807;28;20284;-78
2022/03/26 09:29:56;;;;;;;49.80;21.15;;;18.50;72.20;;;;;;5052823;28;20251;-78
2022/03/26 09:32:22;;;;;;;44.20;20.63;;;19.10;71.30;;;;;;5052842;28;20174;-78
2022/03/26 09:34:48;;;;;;;45.88;20.25;;;19.40;70.20;;;;;;5052675;28;20178;-78
2022/03/26 09:37:15;;;;;;;35.40;18.33;;;19.20;70.70;;;;;;5052265;28;20347;-78
2022/03/26 09:39:41;;;;;;;37.22;17.48;;;19.30;71.10;;;;;;5051387;28;20692;-78
2022/03/26 09:42:09;;;;;;;39.60;17.60;;;19.00;71.40;;;;;;5051938;28;20174;-78
2022/03/26 09:44:35;;;;;;;40.13;18.83;;;19.10;73.20;;;;;;5052581;28;20174;-78
2022/03/26 09:47:04;;;;;;;39.35;19.73;;;18.90;71.10;;;;;;5052374;28;20173;-78
2022/03/26 09:49:31;;;;;;;41.05;20.20;;;19.20;71.20;;;;;;5055706;28;20221;-79
2022/03/26 09:51:57;;;;;;;37.00;18.75;;;19.10;71.30;;;;;;5053401;28;20172;-79
2022/03/26 09:54:23;;;;;;;36.50;17.20;;;19.20;71.30;;;;;;5054544;28;20205;-79
2022/03/26 09:56:49;;;;;;;33.88;16.05;;;19.30;71.50;;;;;;5055630;28;20181;-78
2022/03/26 09:59:18;;;;;;;22.92;13.63;;;19.20;70.30;;;;;;5057261;28;20201;-78
2022/03/26 10:01:44;;;;;;;24.83;13.63;;;18.50;74.30;;;;;;5056074;28;20510;-78
2022/03/26 10:04:19;;;;;;;29.63;14.70;;;19.60;71.30;;;;;;5056137;28;20176;-78
2022/03/26 10:06:55;;;;;;;20.92;11.95;;;18.80;70.60;;;;;;5058075;28;20173;-78
2022/03/26 10:09:45;;;;;;;28.80;13.52;;;18.80;72.70;;;;;;5057718;28;20204;-78
2022/03/26 10:12:15;;;;;;;24.30;12.57;;;18.30;71.50;;;;;;5058601;28;20169;-78
2022/03/26 10:14:43;;;;;;;30.52;14.43;;;18.00;72.60;;;;;;5055981;28;20209;-78
2022/03/26 10:17:17;;;;;;;32.50;14.43;;;17.70;72.90;;;;;;5055070;28;20173;-78
2022/03/26 10:19:55;;;;;;;25.67;13.40;;;18.10;72.40;;;;;;5055122;28;20694;-78
2022/03/26 10:22:32;;;;;;;28.00;13.52;;;18.80;71.80;;;;;;5054598;28;20181;-78
2022/03/26 10:25:01;;;;;;;24.70;13.25;;;19.80;70.90;;;;;;5055237;28;20173;-78
2022/03/26 10:27:31;;;;;;;30.35;14.07;;;19.50;70.40;;;;;;5055003;28;20245;-78
2022/03/26 10:29:59;;;;;;;29.10;13.50;;;19.60;71.20;;;;;;5055712;28;20287;-78
2022/03/26 10:32:51;;;;;;;26.20;14.10;;;19.80;70.80;;;;;;5056066;28;20278;-79
2022/03/26 10:35:27;;;;;;;31.70;14.80;;;19.90;69.30;;;;;;5053611;28;20178;-78
2022/03/26 10:37:56;;;;;;;29.75;14.27;;;19.90;71.20;;;;;;5055177;28;20216;-78
2022/03/26 10:40:31;;;;;;;33.90;13.80;;;20.10;70.50;;;;;;5054655;28;20216;-78
2022/03/26 10:42:58;;;;;;;31.38;13.30;;;20.20;68.30;;;;;;5054977;28;20173;-78
2022/03/26 10:45:24;;;;;;;22.77;10.80;;;19.70;69.40;;;;;;5054930;28;20173;-78
2022/03/26 10:47:53;;;;;;;19.80;10.90;;;19.20;69.50;;;;;;5053176;28;20195;-78
2022/03/26 10:50:19;;;;;;;24.92;11.93;;;18.50;69.60;;;;;;5053404;28;20568;-78
2022/03/26 10:52:45;;;;;;;22.92;12.63;;;18.60;68.90;;;;;;5053144;28;20173;-78
2022/03/26 10:55:16;;;;;;;26.33;12.65;;;18.30;70.20;;;;;;5053944;28;20181;-79
2022/03/26 10:57:44;;;;;;;25.77;12.18;;;19.00;69.50;;;;;;5056824;28;20575;-78
2022/03/26 11:00:11;;;;;;;23.20;12.60;;;19.60;67.40;;;;;;5060738;28;20240;-79
2022/03/26 11:02:37;;;;;;;27.63;12.23;;;19.90;66.30;;;;;;5064248;28;20192;-79
2022/03/26 11:05:03;;;;;;;23.02;12.20;;;20.20;66.60;;;;;;5062207;28;20170;-79
2022/03/26 11:07:30;;;;;;;32.90;12.73;;;20.20;65.10;;;;;;5061744;28;20184;-79
2022/03/26 11:09:57;;;;;;;23.63;12.85;;;20.30;67.50;;;;;;5064015;28;20190;-79
2022/03/26 11:12:23;;;;;;;23.98;12.63;;;20.70;66.50;;;;;;5075539;22;20170;31
2022/03/26 11:14:50;;;;;;;24.67;12.77;;;20.40;65.60;;;;;;5051641;28;20239;-75
2022/03/26 11:17:25;;;;;;;26.85;12.82;;;21.00;65.40;;;;;;5052415;28;20177;-75
2022/03/26 11:20:31;;;;;;;29.55;12.93;;;21.10;64.90;;;;;;5052295;28;20196;-77
2022/03/26 11:23:17;;;;;;;28.25;13.25;;;21.20;64.70;;;;;;5052278;28;20165;-74
2022/03/26 11:26:04;;;;;;;32.08;13.63;;;19.90;65.80;;;;;;5052191;28;20547;-75
2022/03/26 11:29:13;;;;;;;32.00;14.50;;;19.10;65.30;;;;;;5052310;28;20292;-76
2022/03/26 11:31:52;;;;;;;27.02;12.95;;;19.50;67.40;;;;;;5051539;28;20200;-75
2022/03/26 11:34:18;;;;;;;27.92;12.45;;;19.90;66.00;;;;;;5052114;28;20180;-75
2022/03/26 11:36:44;;;;;;;24.15;12.70;;;19.90;64.20;;;;;;5051957;28;20197;-77
2022/03/26 11:39:16;;;;;;;24.70;13.20;;;19.40;68.70;;;;;;5051817;28;20689;-74
2022/03/26 11:41:44;;;;;;;26.50;12.48;;;18.80;66.70;;;;;;5051402;28;20169;-77
2022/03/26 11:44:11;;;;;;;27.25;12.23;;;19.40;65.40;;;;;;5051739;28;20176;-77
2022/03/26 11:52:32;;;;;;;26.25;12.82;;;19.70;64.30;;;;;;5052548;28;20181;-76
2022/03/26 11:55:03;;;;;;;28.85;12.25;;;19.70;65.80;;;;;;5051677;28;20261;-74
2022/03/26 11:57:29;;;;;;;26.58;12.52;;;19.40;64.70;;;;;;5051470;28;20657;-76
2022/03/26 11:59:55;;;;;;;30.30;13.88;;;19.10;67.10;;;;;;5051573;28;20200;-75
2022/03/26 12:02:35;;;;;;;28.77;13.65;;;18.90;66.30;;;;;;5051364;28;20178;-76
2022/03/26 12:08:40;;;;;;;26.92;11.63;;;19.40;66.70;;;;;;5052939;28;20720;-75
2022/03/26 12:11:06;;;;;;;21.52;10.90;;;20.40;66.00;;;;;;5038809;28;20181;-77
2022/03/26 12:13:33;;;;;;;19.13;10.20;;;20.40;65.30;;;;;;5051389;28;20189;-75
2022/03/26 12:16:00;;;;;;;22.02;10.73;;;19.90;65.30;;;;;;5051155;28;20213;-74
2022/03/26 12:18:38;;;;;;;22.20;11.07;;;19.30;68.00;;;;;;5050216;28;20201;-75
2022/03/26 12:21:21;;;;;;;23.33;11.18;;;19.80;65.80;;;;;;5050797;28;20174;-75
2022/03/26 12:23:47;;;;;;;19.08;10.85;;;20.10;67.40;;;;;;5050877;28;20170;-76
2022/03/26 12:26:13;;;;;;;27.10;12.30;;;20.60;66.00;;;;;;5051017;28;20177;-77
2022/03/26 12:28:41;;;;;;;22.58;12.52;;;21.10;63.40;;;;;;5050932;28;20204;-78
2022/03/26 12:31:11;;;;;;;22.85;11.48;;;20.50;65.00;;;;;;5050787;28;20178;-75
2022/03/26 12:33:49;;;;;;;24.10;12.15;;;20.40;65.50;;;;;;5050967;28;20200;-76
2022/03/26 12:36:18;;;;;;;29.85;12.73;;;20.50;66.50;;;;;;5050605;28;20169;-77
2022/03/26 12:38:48;;;;;;;19.80;10.75;;;20.50;65.70;;;;;;5050540;28;20216;-77
2022/03/26 12:41:14;;;;;;;19.02;10.23;;;20.10;65.40;;;;;;5050304;28;20168;-76
2022/03/26 12:43:39;;;;;;;18.77;10.13;;;19.50;66.00;;;;;;5050703;28;20180;-75
2022/03/26 12:46:10;;;;;;;20.88;10.35;;;18.80;67.40;;;;;;5050673;28;20170;-75